Time;durP1;ratioP1;P1;durP2;ratioP2;P2;SDS_P1;SDS_P2;PMS_P1;PMS_P2;Temp;Humidity;BMP_temperature;BMP_pressure;BME280_temperature;BME280_humidity;BME280_pressure;Samples;Min_cycle;Max_cycle;Signal;HPM_P1;HPM_P2
2022/05/11 00:01:16;;;;;;;;;;;;;;;;;;5009890;28;20418;-68
2022/05/11 00:03:42;;;;;;;;;;;;;;;;;;5008499;28;20401;-67
2022/05/11 00:06:08;;;;;;;;;;;;;;;;;;5012733;28;19917;-67
2022/05/11 00:08:34;;;;;;;;;;;;;;;;;;5009685;28;19925;-67
2022/05/11 00:11:01;;;;;;;;;;;;;;;;;;5007982;28;20484;-67
2022/05/11 00:13:28;;;;;;;;;;;;;;;;;;5009401;28;19976;-67
2022/05/11 00:15:54;;;;;;;;;;;;;;;;;;5005028;28;19936;-67
2022/05/11 00:18:20;;;;;;;;;;;;;;;;;;5007861;28;19971;-67
2022/05/11 00:20:46;;;;;;;;;;;;;;;;;;5007469;28;19970;-66
2022/05/11 00:23:12;;;;;;;;;;;;;;;;;;5009034;28;19924;-67
2022/05/11 00:25:38;;;;;;;;;;;;;;;;;;5007585;28;20544;-67
2022/05/11 00:28:04;;;;;;;;;;;;;;;;;;5005582;28;19923;-67
2022/05/11 00:30:30;;;;;;;;;;;;;;;;;;5004932;28;20374;-67
2022/05/11 00:32:59;;;;;;;;;;;;;;;;;;5008566;28;20299;-67
2022/05/11 00:35:25;;;;;;;;;;;;;;;;;;5006386;28;19974;-67
2022/05/11 00:37:51;;;;;;;;;;;;;;;;;;5005994;28;20000;-66
2022/05/11 00:40:17;;;;;;;;;;;;;;;;;;5016138;28;19923;-65
2022/05/11 00:42:43;;;;;;;;;;;;;;;;;;5006577;28;19924;-66
2022/05/11 00:45:09;;;;;;;;;;;;;;;;;;5010846;28;19968;-65
2022/05/11 00:47:35;;;;;;;;;;;;;;;;;;5010238;28;20341;-67
2022/05/11 00:50:01;;;;;;;;;;;;;;;;;;5007141;28;19970;-66
2022/05/11 00:52:27;;;;;;;;;;;;;;;;;;5006328;28;19930;-66
2022/05/11 00:54:53;;;;;;;;;;;;;;;;;;5002296;28;20015;-68
2022/05/11 00:57:19;;;;;;;;;;;;;;;;;;5001154;28;20000;-66
2022/05/11 00:59:45;;;;;;;;;;;;;;;;;;5010104;28;20004;-66
2022/05/11 01:02:11;;;;;;;;;;;;;;;;;;5011445;28;19923;-66
2022/05/11 01:04:37;;;;;;;;;;;;;;;;;;5015177;28;20348;-66
2022/05/11 01:07:04;;;;;;;;;;;;;;;;;;5007073;28;19960;-66
2022/05/11 01:09:30;;;;;;;;;;;;;;;;;;5011393;28;20411;-67
2022/05/11 01:11:56;;;;;;;;;;;;;;;;;;5009580;28;19927;-66
2022/05/11 01:14:22;;;;;;;;;;;;;;;;;;5017457;28;19924;-66
2022/05/11 01:16:48;;;;;;;;;;;;;;;;;;5011060;28;19960;-66
2022/05/11 01:19:14;;;;;;;;;;;;;;;;;;5027854;28;19999;-66
2022/05/11 01:21:40;;;;;;;;;;;;;;;;;;5011615;28;19921;-67
2022/05/11 01:24:06;;;;;;;;;;;;;;;;;;5010149;28;19920;-66
2022/05/11 01:26:33;;;;;;;;;;;;;;;;;;5007962;28;20074;-66
2022/05/11 01:28:59;;;;;;;;;;;;;;;;;;5012162;28;19917;-66
2022/05/11 01:31:25;;;;;;;;;;;;;;;;;;5015016;28;20271;-66
2022/05/11 01:33:51;;;;;;;;;;;;;;;;;;5010965;28;20000;-66
2022/05/11 01:36:17;;;;;;;;;;;;;;;;;;5013129;28;20290;-66
2022/05/11 01:38:43;;;;;;;;;;;;;;;;;;5005476;28;19956;-67
2022/05/11 01:41:09;;;;;;;;;;;;;;;;;;5015157;28;20062;-66
2022/05/11 01:43:35;;;;;;;;;;;;;;;;;;5009131;28;19990;-66
2022/05/11 01:46:01;;;;;;;;;;;;;;;;;;5004262;28;22118;-66
2022/05/11 01:48:27;;;;;;;;;;;;;;;;;;5010581;28;19917;-66
2022/05/11 01:50:53;;;;;;;;;;;;;;;;;;5010689;28;19971;-66
2022/05/11 01:53:19;;;;;;;;;;;;;;;;;;5006123;28;19925;-66
2022/05/11 01:55:45;;;;;;;;;;;;;;;;;;5002942;28;19921;-66
2022/05/11 01:58:13;;;;;;;;;;;;;;;;;;5015435;28;20020;-66
2022/05/11 02:00:39;;;;;;;;;;;;;;;;;;5008436;28;19917;-66
2022/05/11 02:03:05;;;;;;;;;;;;;;;;;;5005981;28;19923;-66
2022/05/11 02:08:16;;;;;;;;;;;;;;;;;;5029355;28;19931;-66
2022/05/11 02:10:42;;;;;;;;;;;;;;;;;;5028150;28;19916;-66
2022/05/11 02:13:08;;;;;;;;;;;;;;;;;;5009190;28;19978;-67
2022/05/11 02:15:36;;;;;;;;;;;;;;;;;;5028780;28;19917;-65
2022/05/11 02:18:02;;;;;;;;;;;;;;;;;;5013685;28;19925;-68
2022/05/11 02:20:27;;;;;;;;;;;;;;;;;;5022195;28;19963;-67
2022/05/11 02:22:53;;;;;;;;;;;;;;;;;;5023614;28;19920;-69
2022/05/11 02:25:19;;;;;;;;;;;;;;;;;;5014917;28;20568;-65
2022/05/11 02:27:45;;;;;;;;;;;;;;;;;;5021480;28;20037;-66
2022/05/11 02:30:11;;;;;;;;;;;;;;;;;;5012629;28;19923;-66
2022/05/11 02:32:37;;;;;;;;;;;;;;;;;;5033737;28;20268;-68
2022/05/11 02:35:12;;;;;;;;;;;;;;;;;;5005487;28;19939;-68
2022/05/11 02:37:38;;;;;;;;;;;;;;;;;;5011315;28;19924;-67
2022/05/11 02:40:05;;;;;;;;;;;;;;;;;;5004791;28;19916;-68
2022/05/11 02:42:31;;;;;;;;;;;;;;;;;;5014729;28;19942;-67
2022/05/11 02:44:57;;;;;;;;;;;;;;;;;;5011849;28;19921;-68
2022/05/11 02:47:23;;;;;;;;;;;;;;;;;;5030517;28;20019;-66
2022/05/11 02:49:49;;;;;;;;;;;;;;;;;;5023326;28;19927;-66
2022/05/11 02:52:15;;;;;;;;;;;;;;;;;;5027751;28;19921;-66
2022/05/11 02:54:41;;;;;;;;;;;;;;;;;;5028272;28;20437;-66
2022/05/11 02:57:07;;;;;;;;;;;;;;;;;;5008213;28;20007;-67
2022/05/11 02:59:33;;;;;;;;;;;;;;;;;;5030635;28;19921;-66
2022/05/11 03:01:59;;;;;;;;;;;;;;;;;;5006648;28;20174;-67
2022/05/11 03:04:25;;;;;;;;;;;;;;;;;;5029843;28;19917;-66
2022/05/11 03:06:51;;;;;;;;;;;;;;;;;;5025462;28;20003;-66
2022/05/11 03:09:17;;;;;;;;;;;;;;;;;;5030260;28;20461;-66
2022/05/11 03:11:43;;;;;;;;;;;;;;;;;;5021923;28;19921;-67
2022/05/11 03:14:09;;;;;;;;;;;;;;;;;;5030603;28;19916;-67
2022/05/11 03:16:35;;;;;;;;;;;;;;;;;;5028907;28;20358;-68
2022/05/11 03:19:02;;;;;;;;;;;;;;;;;;5021377;28;20332;-67
2022/05/11 03:21:27;;;;;;;;;;;;;;;;;;5012034;28;20343;-68
2022/05/11 03:23:54;;;;;;;;;;;;;;;;;;5022283;28;20653;-67
2022/05/11 03:26:20;;;;;;;;;;;;;;;;;;5011094;28;19927;-68
2022/05/11 03:28:46;;;;;;;;;;;;;;;;;;5025294;28;20242;-67
2022/05/11 03:31:11;;;;;;;;;;;;;;;;;;5007992;28;19916;-67
2022/05/11 03:36:22;;;;;;;;;;;;;;;;;;5027309;28;20361;-67
2022/05/11 03:38:48;;;;;;;;;;;;;;;;;;5016125;28;19916;-67
2022/05/11 03:41:14;;;;;;;;;;;;;;;;;;5033646;28;19920;-67
2022/05/11 03:43:40;;;;;;;;;;;;;;;;;;5030745;28;19913;-67
2022/05/11 03:46:07;;;;;;;;;;;;;;;;;;5046579;28;20050;-67
2022/05/11 03:48:33;;;;;;;;;;;;;;;;;;5035594;28;19920;-67
2022/05/11 03:50:59;;;;;;;;;;;;;;;;;;5029852;28;20000;-67
2022/05/11 03:53:25;;;;;;;;;;;;;;;;;;5030032;28;19920;-67
2022/05/11 03:55:51;;;;;;;;;;;;;;;;;;5019829;28;19940;-67
2022/05/11 03:58:17;;;;;;;;;;;;;;;;;;5026431;28;20367;-67
2022/05/11 04:00:43;;;;;;;;;;;;;;;;;;5030579;28;19916;-67
2022/05/11 04:03:09;;;;;;;;;;;;;;;;;;5010816;28;19924;-67
2022/05/11 04:05:35;;;;;;;;;;;;;;;;;;5025266;28;20028;-68
2022/05/11 04:08:01;;;;;;;;;;;;;;;;;;5028362;28;20782;-67
2022/05/11 04:10:27;;;;;;;;;;;;;;;;;;5027250;28;19923;-67
2022/05/11 04:12:53;;;;;;;;;;;;;;;;;;5024395;28;20370;-67
2022/05/11 04:15:19;;;;;;;;;;;;;;;;;;5036726;28;19931;-67
2022/05/11 04:17:45;;;;;;;;;;;;;;;;;;5011424;28;20774;-67
2022/05/11 04:20:11;;;;;;;;;;;;;;;;;;5033409;28;19916;-68
2022/05/11 04:22:38;;;;;;;;;;;;;;;;;;5015597;28;19970;-67
2022/05/11 04:25:04;;;;;;;;;;;;;;;;;;5011961;28;19916;-68
2022/05/11 04:27:30;;;;;;;;;;;;;;;;;;5019379;28;19926;-67
2022/05/11 04:29:56;;;;;;;;;;;;;;;;;;5027309;28;19917;-67
2022/05/11 04:32:22;;;;;;;;;;;;;;;;;;5030360;28;19921;-67
2022/05/11 04:34:48;;;;;;;;;;;;;;;;;;5027406;28;19983;-66
2022/05/11 04:37:14;;;;;;;;;;;;;;;;;;5017792;28;20286;-67
2022/05/11 04:39:40;;;;;;;;;;;;;;;;;;5017649;28;19941;-67
2022/05/11 04:42:07;;;;;;;;;;;;;;;;;;5035869;28;19968;-67
2022/05/11 04:44:33;;;;;;;;;;;;;;;;;;5034476;28;20027;-67
2022/05/11 04:46:58;;;;;;;;;;;;;;;;;;5030739;28;20322;-68
2022/05/11 04:49:25;;;;;;;;;;;;;;;;;;5022241;28;19923;-67
2022/05/11 04:51:51;;;;;;;;;;;;;;;;;;5028004;28;20688;-68
2022/05/11 04:54:17;;;;;;;;;;;;;;;;;;5037272;28;20684;-68
2022/05/11 04:56:43;;;;;;;;;;;;;;;;;;5037844;28;19927;-68
2022/05/11 04:59:09;;;;;;;;;;;;;;;;;;5015339;28;20435;-68
2022/05/11 05:01:34;;;;;;;;;;;;;;;;;;5032975;28;19924;-67
2022/05/11 05:04:01;;;;;;;;;;;;;;;;;;5010175;28;20461;-67
2022/05/11 05:06:28;;;;;;;;;;;;;;;;;;5033201;28;19944;-67
2022/05/11 05:08:55;;;;;;;;;;;;;;;;;;5026786;28;20271;-68
2022/05/11 05:11:20;;;;;;;;;;;;;;;;;;5029841;28;19917;-68
2022/05/11 05:13:46;;;;;;;;;;;;;;;;;;5026388;28;20416;-68
2022/05/11 05:16:12;;;;;;;;;;;;;;;;;;5011991;28;20651;-68
2022/05/11 05:18:38;;;;;;;;;;;;;;;;;;5028592;28;19917;-68
2022/05/11 05:21:07;;;;;;;;;;;;;;;;;;5026033;28;19916;-69
2022/05/11 05:23:35;;;;;;;;;;;;;;;;;;5014696;28;19917;-68
2022/05/11 05:26:02;;;;;;;;;;;;;;;;;;5013724;28;20554;-68
2022/05/11 05:31:14;;;;;;;;;;;;;;;;;;5026735;28;19940;-69
2022/05/11 05:33:41;;;;;;;;;;;;;;;;;;5017129;28;19921;-68
2022/05/11 05:36:07;;;;;;;;;;;;;;;;;;5008987;28;20012;-67
2022/05/11 05:38:33;;;;;;;;;;;;;;;;;;5032338;28;19924;-68
2022/05/11 05:40:59;;;;;;;;;;;;;;;;;;5031960;28;20712;-67
2022/05/11 05:43:25;;;;;;;;;;;;;;;;;;5036025;28;19917;-66
2022/05/11 05:45:51;;;;;;;;;;;;;;;;;;5025480;28;19956;-69
2022/05/11 05:48:17;;;;;;;;;;;;;;;;;;5017499;28;20009;-68
2022/05/11 05:50:43;;;;;;;;;;;;;;;;;;5011876;28;20020;-68
2022/05/11 05:53:09;;;;;;;;;;;;;;;;;;5035598;28;19920;-66
2022/05/11 05:55:35;;;;;;;;;;;;;;;;;;5032312;28;19971;-69
2022/05/11 05:58:01;;;;;;;;;;;;;;;;;;5008425;28;20652;-68
2022/05/11 06:00:27;;;;;;;;;;;;;;;;;;5032797;28;20362;-68
2022/05/11 06:02:53;;;;;;;;;;;;;;;;;;5032996;28;20015;-68
2022/05/11 06:05:19;;;;;;;;;;;;;;;;;;5031082;28;20026;-68
2022/05/11 06:07:45;;;;;;;;;;;;;;;;;;5007238;28;20058;-68
2022/05/11 06:10:11;;;;;;;;;;;;;;;;;;5011240;28;19944;-68
2022/05/11 06:12:37;;;;;;;;;;;;;;;;;;5010352;28;20255;-67
2022/05/11 06:15:03;;;;;;;;;;;;;;;;;;5002752;28;20004;-67
2022/05/11 06:17:29;;;;;;;;;;;;;;;;;;5005620;28;19918;-67
2022/05/11 06:19:55;;;;;;;;;;;;;;;;;;5007916;28;19913;-69
2022/05/11 06:22:21;;;;;;;;;;;;;;;;;;4975877;28;19924;-67
2022/05/11 06:24:47;;;;;;;;;;;;;;;;;;4971638;28;19917;-67
2022/05/11 06:27:14;;;;;;;;;;;;;;;;;;5011518;28;19928;-67
2022/05/11 06:29:41;;;;;;;;;;;;;;;;;;5014534;28;19987;-67
2022/05/11 06:32:07;;;;;;;;;;;;;;;;;;5012794;28;19998;-67
2022/05/11 06:34:33;;;;;;;;;;;;;;;;;;5010565;28;19921;-68
2022/05/11 06:36:59;;;;;;;;;;;;;;;;;;5008733;28;19959;-67
2022/05/11 06:39:25;;;;;;;;;;;;;;;;;;5015090;28;20260;-66
2022/05/11 06:41:51;;;;;;;;;;;;;;;;;;5005479;28;19917;-67
2022/05/11 06:44:17;;;;;;;;;;;;;;;;;;5013253;28;19964;-67
2022/05/11 06:46:44;;;;;;;;;;;;;;;;;;5007846;28;19942;-67
2022/05/11 06:49:10;;;;;;;;;;;;;;;;;;5010791;28;19924;-67
2022/05/11 06:51:36;;;;;;;;;;;;;;;;;;5010687;28;20287;-67
2022/05/11 06:59:33;;;;;;;;;;;;;;;;;;4959005;28;19987;-67
2022/05/11 07:01:59;;;;;;;;;;;;;;;;;;4952043;28;20614;-67
2022/05/11 07:04:25;;;;;;;;;;;;;;;;;;4953375;28;19923;-67
2022/05/11 07:06:52;;;;;;;;;;;;;;;;;;4949205;28;19921;-67
2022/05/11 07:09:18;;;;;;;;;;;;;;;;;;4990272;28;20910;-67
2022/05/11 07:14:29;;;;;;;;;;;;;;;;;;4971888;28;20242;-67
2022/05/11 07:16:56;;;;;;;;;;;;;;;;;;4975742;28;19921;-67
2022/05/11 07:19:23;;;;;;;;;;;;;;;;;;4953496;28;19917;-68
2022/05/11 07:21:49;;;;;;;;;;;;;;;;;;4967621;28;20259;-67
2022/05/11 07:24:15;;;;;;;;;;;;;;;;;;4971885;28;19924;-67
2022/05/11 07:26:41;;;;;;;;;;;;;;;;;;4975900;28;20389;-66
2022/05/11 07:29:10;;;;;;;;;;;;;;;;;;4972410;28;19924;-66
2022/05/11 07:31:37;;;;;;;;;;;;;;;;;;4978086;28;20260;-69
2022/05/11 07:34:03;;;;;;;;;;;;;;;;;;4970229;28;19940;-67
2022/05/11 07:36:29;;;;;;;;;;;;;;;;;;5010333;28;19917;-67
2022/05/11 07:38:55;;;;;;;;;;;;;;;;;;5026785;28;19920;-68
2022/05/11 07:41:21;;;;;;;;;;;;;;;;;;5012287;28;20016;-67
2022/05/11 07:43:47;;;;;;;;;;;;;;;;;;5028348;28;19923;-66
2022/05/11 07:46:13;;;;;;;;;;;;;;;;;;5028657;28;20012;-67
2022/05/11 07:48:39;;;;;;;;;;;;;;;;;;5017108;28;19921;-68
2022/05/11 07:51:05;;;;;;;;;;;;;;;;;;5033883;28;19917;-69
2022/05/11 07:53:32;;;;;;;;;;;;;;;;;;5037055;28;19991;-66
2022/05/11 08:01:27;;;;;;;;;;;;;;;;;;5031183;28;20465;-68
2022/05/11 08:03:53;;;;;;;;;;;;;;;;;;5031904;28;19917;-69
2022/05/11 08:06:19;;;;;;;;;;;;;;;;;;5016921;28;19960;-68
2022/05/11 08:08:45;;;;;;;;;;;;;;;;;;5032383;28;19932;-68
2022/05/11 08:11:11;;;;;;;;;;;;;;;;;;5037188;28;19917;-68
2022/05/11 08:13:37;;;;;;;;;;;;;;;;;;5034964;28;19994;-68
2022/05/11 08:16:03;;;;;;;;;;;;;;;;;;5033623;28;20405;-68
2022/05/11 08:18:29;;;;;;;;;;;;;;;;;;5033656;28;19917;-68
2022/05/11 08:20:55;;;;;;;;;;;;;;;;;;5015125;28;20370;-66
2022/05/11 08:23:21;;;;;;;;;;;;;;;;;;5032950;28;19917;-66
2022/05/11 08:25:48;;;;;;;;;;;;;;;;;;5014500;28;20006;-66
2022/05/11 08:28:14;;;;;;;;;;;;;;;;;;5031120;28;19916;-66
2022/05/11 08:33:28;;;;;;;;;;;;;;;;;;5036381;28;19927;-67
2022/05/11 08:35:55;;;;;;;;;;;;;;;;;;5029331;28;19990;-67
2022/05/11 08:38:21;;;;;;;;;;;;;;;;;;5018909;28;19987;-67
2022/05/11 08:40:47;;;;;;;;;;;;;;;;;;5029175;28;19990;-68
2022/05/11 08:43:13;;;;;;;;;;;;;;;;;;5036665;28;19994;-68
2022/05/11 08:45:39;;;;;;;;;;;;;;;;;;5016273;28;19929;-68
2022/05/11 08:48:06;;;;;;;;;;;;;;;;;;5030844;28;19923;-68
2022/05/11 08:50:32;;;;;;;;;;;;;;;;;;5017765;28;19923;-68
2022/05/11 08:52:58;;;;;;;;;;;;;;;;;;5030977;28;19924;-67
2022/05/11 08:55:24;;;;;;;;;;;;;;;;;;5030164;28;19917;-68
2022/05/11 08:57:50;;;;;;;;;;;;;;;;;;5010753;28;19917;-68
2022/05/11 09:00:16;;;;;;;;;;;;;;;;;;5031828;28;20405;-68
2022/05/11 09:02:42;;;;;;;;;;;;;;;;;;5032208;28;19917;-68
2022/05/11 09:05:08;;;;;;;;;;;;;;;;;;5016055;28;20464;-67
2022/05/11 09:07:34;;;;;;;;;;;;;;;;;;5033043;28;20510;-66
2022/05/11 09:10:00;;;;;;;;;;;;;;;;;;5026581;28;20046;-66
2022/05/11 09:12:26;;;;;;;;;;;;;;;;;;5013132;28;20465;-68
2022/05/11 09:14:52;;;;;;;;;;;;;;;;;;5020968;28;20283;-67
2022/05/11 09:17:19;;;;;;;;;;;;;;;;;;5011607;28;19991;-67
2022/05/11 09:19:45;;;;;;;;;;;;;;;;;;5033056;28;19923;-67
2022/05/11 09:22:13;;;;;;;;;;;;;;;;;;5031587;28;19917;-67
2022/05/11 09:24:38;;;;;;;;;;;;;;;;;;5031491;28;19956;-68
2022/05/11 09:27:04;;;;;;;;;;;;;;;;;;5033421;28;20039;-66
2022/05/11 09:29:31;;;;;;;;;;;;;;;;;;5013638;28;19917;-66
2022/05/11 09:31:57;;;;;;;;;;;;;;;;;;5031319;28;19979;-67
2022/05/11 09:34:24;;;;;;;;;;;;;;;;;;5038439;28;19959;-67
2022/05/11 09:36:50;;;;;;;;;;;;;;;;;;5030482;28;19927;-67
2022/05/11 09:39:15;;;;;;;;;;;;;;;;;;5020153;28;20114;-67
2022/05/11 09:41:42;;;;;;;;;;;;;;;;;;5032986;28;19920;-66
2022/05/11 09:44:08;;;;;;;;;;;;;;;;;;5033689;28;20026;-67
2022/05/11 09:46:34;;;;;;;;;;;;;;;;;;5035657;28;19923;-67
2022/05/11 09:49:00;;;;;;;;;;;;;;;;;;5035709;28;19920;-66
2022/05/11 09:51:26;;;;;;;;;;;;;;;;;;5031229;28;19924;-66
2022/05/11 09:53:52;;;;;;;;;;;;;;;;;;5029628;28;20298;-65
2022/05/11 09:56:18;;;;;;;;;;;;;;;;;;5032949;28;20048;-65
2022/05/11 09:58:44;;;;;;;;;;;;;;;;;;5010658;28;19916;-66
2022/05/11 10:01:10;;;;;;;;;;;;;;;;;;5033437;28;19924;-66
2022/05/11 10:03:36;;;;;;;;;;;;;;;;;;5035208;28;19940;-66
2022/05/11 10:06:02;;;;;;;;;;;;;;;;;;5028284;28;20465;-65
2022/05/11 10:08:28;;;;;;;;;;;;;;;;;;5030965;28;19925;-67
2022/05/11 10:10:54;;;;;;;;;;;;;;;;;;5029918;28;19916;-65
2022/05/11 10:13:20;;;;;;;;;;;;;;;;;;5033300;28;19929;-65
2022/05/11 10:24:04;;;;;;;;;;;;;;;;;;5027004;28;20492;-64
2022/05/11 10:26:30;;;;;;;;;;;;;;;;;;5028341;28;19980;-67
2022/05/11 10:28:55;;;;;;;;;;;;;;;;;;5027436;28;20307;-65
2022/05/11 10:31:21;;;;;;;;;;;;;;;;;;5030245;28;19924;-65
2022/05/11 10:33:47;;;;;;;;;;;;;;;;;;5023888;28;19920;-65
2022/05/11 10:36:14;;;;;;;;;;;;;;;;;;5011727;28;19917;-66
2022/05/11 10:38:39;;;;;;;;;;;;;;;;;;5030384;28;19994;-66
2022/05/11 10:41:06;;;;;;;;;;;;;;;;;;5030141;28;19917;-65
2022/05/11 10:43:31;;;;;;;;;;;;;;;;;;5020710;28;19928;-65
2022/05/11 10:45:57;;;;;;;;;;;;;;;;;;5011401;28;19917;-65
2022/05/11 10:48:23;;;;;;;;;;;;;;;;;;5034944;28;20347;-65
2022/05/11 10:50:50;;;;;;;;;;;;;;;;;;5012264;28;19917;-65
2022/05/11 10:53:17;;;;;;;;;;;;;;;;;;5017353;28;19921;-66
2022/05/11 10:55:43;;;;;;;;;;;;;;;;;;5026381;28;20638;-65
2022/05/11 10:58:09;;;;;;;;;;;;;;;;;;5015188;28;19955;-65
2022/05/11 11:00:35;;;;;;;;;;;;;;;;;;5032072;28;19966;-66
2022/05/11 11:03:01;;;;;;;;;;;;;;;;;;5028066;28;21354;-66
2022/05/11 11:05:27;;;;;;;;;;;;;;;;;;5034365;28;19913;-66
2022/05/11 11:07:53;;;;;;;;;;;;;;;;;;5031822;28;19964;-68
2022/05/11 11:10:19;;;;;;;;;;;;;;;;;;5016698;28;19987;-68
2022/05/11 11:12:48;;;;;;;;;;;;;;;;;;5013488;28;20371;-68
2022/05/11 11:15:14;;;;;;;;;;;;;;;;;;5013123;28;19963;-68
2022/05/11 11:17:40;;;;;;;;;;;;;;;;;;5011171;28;19913;-68
2022/05/11 11:20:06;;;;;;;;;;;;;;;;;;5027647;28;19928;-67
2022/05/11 11:22:32;;;;;;;;;;;;;;;;;;5031634;28;20356;-68
2022/05/11 11:24:58;;;;;;;;;;;;;;;;;;5007583;28;19921;-68
2022/05/11 11:27:24;;;;;;;;;;;;;;;;;;5032642;28;19917;-68
2022/05/11 11:29:50;;;;;;;;;;;;;;;;;;5021812;28;19917;-68
2022/05/11 11:32:16;;;;;;;;;;;;;;;;;;5012239;28;19993;-69
2022/05/11 11:34:42;;;;;;;;;;;;;;;;;;5022994;28;19921;-68
2022/05/11 11:37:08;;;;;;;;;;;;;;;;;;5028787;28;19969;-68
2022/05/11 11:39:34;;;;;;;;;;;;;;;;;;5023213;28;19917;-69
2022/05/11 11:42:00;;;;;;;;;;;;;;;;;;5005741;28;19923;-70
2022/05/11 11:44:26;;;;;;;;;;;;;;;;;;5012265;28;19917;-69
2022/05/11 11:46:52;;;;;;;;;;;;;;;;;;5026719;28;19924;-69
2022/05/11 11:49:18;;;;;;;;;;;;;;;;;;5012856;28;19917;-69
2022/05/11 11:51:44;;;;;;;;;;;;;;;;;;5036661;28;19923;-69
2022/05/11 11:54:10;;;;;;;;;;;;;;;;;;5022448;28;20006;-69
2022/05/11 11:56:36;;;;;;;;;;;;;;;;;;5020591;28;20009;-67
2022/05/11 11:59:03;;;;;;;;;;;;;;;;;;4997312;28;20690;-67
2022/05/11 12:01:29;;;;;;;;;;;;;;;;;;5018286;28;19947;-68
2022/05/11 12:03:55;;;;;;;;;;;;;;;;;;5024792;28;20393;-67
2022/05/11 12:17:20;;;;;;;;;;;;;;;;;;4976535;28;20272;-69
2022/05/11 12:19:46;;;;;;;;;;;;;;;;;;4977330;28;20466;-68
2022/05/11 12:22:12;;;;;;;;;;;;;;;;;;4974609;28;20241;-69
2022/05/11 12:24:38;;;;;;;;;;;;;;;;;;4980993;28;19922;-69
2022/05/11 12:27:04;;;;;;;;;;;;;;;;;;4982892;28;19964;-69
2022/05/11 12:32:15;;;;;;;;;;;;;;;;;;4979231;28;19993;-69
2022/05/11 12:34:41;;;;;;;;;;;;;;;;;;4983649;28;19921;-66
2022/05/11 12:37:07;;;;;;;;;;;;;;;;;;4981740;28;19925;-66
2022/05/11 12:39:33;;;;;;;;;;;;;;;;;;4988573;28;20024;-66
2022/05/11 12:42:07;;;;;;;;;;;;;;;;;;4976442;28;19925;-66
2022/05/11 12:44:33;;;;;;;;;;;;;;;;;;4985748;28;20388;-66
2022/05/11 12:46:59;;;;;;;;;;;;;;;;;;4983947;28;20004;-66
2022/05/11 12:49:25;;;;;;;;;;;;;;;;;;4984970;28;20581;-66
2022/05/11 12:51:51;;;;;;;;;;;;;;;;;;4978239;28;19940;-66
2022/05/11 12:54:17;;;;;;;;;;;;;;;;;;4982941;28;20084;-66
2022/05/11 12:56:43;;;;;;;;;;;;;;;;;;4981669;28;19921;-66
2022/05/11 12:59:10;;;;;;;;;;;;;;;;;;4988036;28;20330;-66
2022/05/11 13:01:36;;;;;;;;;;;;;;;;;;4982904;28;19928;-66
2022/05/11 13:04:02;;;;;;;;;;;;;;;;;;4979010;28;20500;-66
2022/05/11 13:06:28;;;;;;;;;;;;;;;;;;4979863;28;19922;-66
2022/05/11 13:08:54;;;;;;;;;;;;;;;;;;5014512;28;19985;-66
2022/05/11 13:11:20;;;;;;;;;;;;;;;;;;5017992;28;20479;-66
2022/05/11 13:13:46;;;;;;;;;;;;;;;;;;5020825;28;19924;-65
2022/05/11 13:16:12;;;;;;;;;;;;;;;;;;5026619;28;20660;-66
2022/05/11 13:18:38;;;;;;;;;;;;;;;;;;5032473;28;19916;-66
2022/05/11 13:21:06;;;;;;;;;;;;;;;;;;5027684;28;19967;-65
2022/05/11 13:23:33;;;;;;;;;;;;;;;;;;5011815;28;20526;-66
2022/05/11 13:25:59;;;;;;;;;;;;;;;;;;5032873;28;20371;-66
2022/05/11 13:28:25;;;;;;;;;;;;;;;;;;5038380;28;19917;-66
2022/05/11 13:30:51;;;;;;;;;;;;;;;;;;5013387;28;19921;-66
2022/05/11 13:33:17;;;;;;;;;;;;;;;;;;5020134;28;20237;-66
2022/05/11 13:35:43;;;;;;;;;;;;;;;;;;5026323;28;20388;-66
2022/05/11 13:38:12;;;;;;;;;;;;;;;;;;5032514;28;19921;-66
2022/05/11 13:40:38;;;;;;;;;;;;;;;;;;5019092;28;19912;-66
2022/05/11 13:43:04;;;;;;;;;;;;;;;;;;5033121;28;19923;-66
2022/05/11 13:45:33;;;;;;;;;;;;;;;;;;5029146;28;20354;-66
2022/05/11 13:48:15;;;;;;;;;;;;;;;;;;5022123;28;19924;-65
2022/05/11 13:50:41;;;;;;;;;;;;;;;;;;5024100;28;20857;-66
2022/05/11 13:53:09;;;;;;;;;;;;;;;;;;5013693;28;20477;-66
2022/05/11 13:55:35;;;;;;;;;;;;;;;;;;5014580;28;20604;-66
2022/05/11 13:58:01;;;;;;;;;;;;;;;;;;5009015;28;20480;-65
2022/05/11 14:00:28;;;;;;;;;;;;;;;;;;5012261;28;19939;-65
2022/05/11 14:02:54;;;;;;;;;;;;;;;;;;5012332;28;20153;-67
2022/05/11 14:05:20;;;;;;;;;;;;;;;;;;5017045;28;20465;-67
2022/05/11 14:07:46;;;;;;;;;;;;;;;;;;5003188;28;19997;-66
2022/05/11 14:10:12;;;;;;;;;;;;;;;;;;5013406;28;19940;-67
2022/05/11 14:12:38;;;;;;;;;;;;;;;;;;5013951;28;19921;-65
2022/05/11 14:15:04;;;;;;;;;;;;;;;;;;5003553;28;19917;-66
2022/05/11 14:17:30;;;;;;;;;;;;;;;;;;5009233;28;19917;-65
2022/05/11 14:19:56;;;;;;;;;;;;;;;;;;5013981;28;19924;-65
2022/05/11 14:22:22;;;;;;;;;;;;;;;;;;5009874;28;19917;-65
2022/05/11 14:24:48;;;;;;;;;;;;;;;;;;5010388;28;20361;-66
2022/05/11 14:27:17;;;;;;;;;;;;;;;;;;5015295;28;20018;-66
2022/05/11 14:29:44;;;;;;;;;;;;;;;;;;5012337;28;19923;-65
2022/05/11 14:32:10;;;;;;;;;;;;;;;;;;5012694;28;19925;-64
2022/05/11 14:34:39;;;;;;;;;;;;;;;;;;5014157;28;19982;-65
2022/05/11 14:37:05;;;;;;;;;;;;;;;;;;5009377;28;19928;-64
2022/05/11 14:39:31;;;;;;;;;;;;;;;;;;5005927;28;19913;-65
2022/05/11 14:41:59;;;;;;;;;;;;;;;;;;5017197;28;19917;-66
2022/05/11 14:44:25;;;;;;;;;;;;;;;;;;5014758;28;20039;-65
2022/05/11 14:46:53;;;;;;;;;;;;;;;;;;5010524;28;20401;-65
2022/05/11 14:49:19;;;;;;;;;;;;;;;;;;5010942;28;19924;-66
2022/05/11 14:51:45;;;;;;;;;;;;;;;;;;5007507;28;19917;-67
2022/05/11 14:54:11;;;;;;;;;;;;;;;;;;5018069;28;20233;-66
2022/05/11 14:56:37;;;;;;;;;;;;;;;;;;5010077;28;20067;-68
2022/05/11 15:01:56;;;;;;;;;;;;;;;;;;5001421;28;19970;-68
2022/05/11 15:04:22;;;;;;;;;;;;;;;;;;5005274;28;19918;-66
2022/05/11 15:06:48;;;;;;;;;;;;;;;;;;4999225;28;19928;-66
2022/05/11 15:09:14;;;;;;;;;;;;;;;;;;5022519;28;20444;-67
2022/05/11 15:14:28;;;;;;;;;;;;;;;;;;5036083;28;20302;-69
2022/05/11 15:16:54;;;;;;;;;;;;;;;;;;5020631;28;19916;-69
2022/05/11 15:19:20;;;;;;;;;;;;;;;;;;5012513;28;19917;-69
2022/05/11 15:21:46;;;;;;;;;;;;;;;;;;5025893;28;19921;-70
2022/05/11 15:24:12;;;;;;;;;;;;;;;;;;5032928;28;19923;-69
2022/05/11 15:26:38;;;;;;;;;;;;;;;;;;5011306;28;19924;-70
2022/05/11 15:29:04;;;;;;;;;;;;;;;;;;5030889;28;19971;-69
2022/05/11 15:31:30;;;;;;;;;;;;;;;;;;5032581;28;19947;-69
2022/05/11 15:33:56;;;;;;;;;;;;;;;;;;5012535;28;19920;-69
2022/05/11 15:36:22;;;;;;;;;;;;;;;;;;5025847;28;19917;-68
2022/05/11 15:38:48;;;;;;;;;;;;;;;;;;5032078;28;19984;-68
2022/05/11 15:41:14;;;;;;;;;;;;;;;;;;5018045;28;19917;-68
2022/05/11 15:43:40;;;;;;;;;;;;;;;;;;5033581;28;19917;-68
2022/05/11 15:46:07;;;;;;;;;;;;;;;;;;5029000;28;19921;-68
2022/05/11 15:48:33;;;;;;;;;;;;;;;;;;5011439;28;20664;-69
2022/05/11 15:50:59;;;;;;;;;;;;;;;;;;5012272;28;19916;-70
2022/05/11 15:53:25;;;;;;;;;;;;;;;;;;5023611;28;19962;-69
2022/05/11 15:55:55;;;;;;;;;;;;;;;;;;5016725;28;20382;-69
2022/05/11 15:58:21;;;;;;;;;;;;;;;;;;5019543;28;19990;-69
2022/05/11 16:00:47;;;;;;;;;;;;;;;;;;5020163;28;19920;-67
2022/05/11 16:03:13;;;;;;;;;;;;;;;;;;5009200;28;20449;-70
2022/05/11 16:05:39;;;;;;;;;;;;;;;;;;5031012;28;19978;-70
2022/05/11 16:08:05;;;;;;;;;;;;;;;;;;5029995;28;19925;-70
2022/05/11 16:10:32;;;;;;;;;;;;;;;;;;5033119;28;19974;-70
2022/05/11 16:12:58;;;;;;;;;;;;;;;;;;5025135;28;19960;-68
2022/05/11 16:15:24;;;;;;;;;;;;;;;;;;5007617;28;19924;-68
2022/05/11 16:20:34;;;;;;;;;;;;;;;;;;5032866;28;20480;-68
2022/05/11 16:23:00;;;;;;;;;;;;;;;;;;5029030;28;19920;-69
2022/05/11 16:25:26;;;;;;;;;;;;;;;;;;5029458;28;19939;-69
2022/05/11 16:27:55;;;;;;;;;;;;;;;;;;5027974;28;20255;-69
2022/05/11 16:30:20;;;;;;;;;;;;;;;;;;5014593;28;19916;-70
2022/05/11 16:32:48;;;;;;;;;;;;;;;;;;5030712;28;19954;-72
2022/05/11 16:35:14;;;;;;;;;;;;;;;;;;5031265;28;19916;-71
2022/05/11 16:37:40;;;;;;;;;;;;;;;;;;5030994;28;19917;-72
2022/05/11 16:40:06;;;;;;;;;;;;;;;;;;5029422;28;19977;-70
2022/05/11 16:42:32;;;;;;;;;;;;;;;;;;5017291;28;19963;-70
2022/05/11 16:44:58;;;;;;;;;;;;;;;;;;5034815;28;19924;-70
2022/05/11 16:47:25;;;;;;;;;;;;;;;;;;5019975;28;19917;-72
2022/05/11 16:49:51;;;;;;;;;;;;;;;;;;5035082;28;20012;-72
2022/05/11 16:52:17;;;;;;;;;;;;;;;;;;5015543;28;19924;-64
2022/05/11 16:54:43;;;;;;;;;;;;;;;;;;5025797;28;19920;-70
2022/05/11 16:57:09;;;;;;;;;;;;;;;;;;5012361;28;19967;-68
2022/05/11 16:59:35;;;;;;;;;;;;;;;;;;5029991;28;20024;-69
2022/05/11 17:02:01;;;;;;;;;;;;;;;;;;5031845;28;21469;-69
2022/05/11 17:04:28;;;;;;;;;;;;;;;;;;5036807;28;20364;-68
2022/05/11 17:06:54;;;;;;;;;;;;;;;;;;5029226;28;19916;-69
2022/05/11 17:09:20;;;;;;;;;;;;;;;;;;5025985;28;19921;-68
2022/05/11 17:11:48;;;;;;;;;;;;;;;;;;5027063;28;19920;-68
2022/05/11 17:14:14;;;;;;;;;;;;;;;;;;5029160;28;20471;-68
2022/05/11 17:16:40;;;;;;;;;;;;;;;;;;5026018;28;20043;-68
2022/05/11 17:19:07;;;;;;;;;;;;;;;;;;5004372;28;20046;-68
2022/05/11 17:21:34;;;;;;;;;;;;;;;;;;5034286;28;19917;-68
2022/05/11 17:23:59;;;;;;;;;;;;;;;;;;5024228;28;19978;-68
2022/05/11 17:26:25;;;;;;;;;;;;;;;;;;5025983;28;19921;-68
2022/05/11 17:28:52;;;;;;;;;;;;;;;;;;5031640;28;20445;-68
2022/05/11 17:31:18;;;;;;;;;;;;;;;;;;5012920;28;19923;-68
2022/05/11 17:33:44;;;;;;;;;;;;;;;;;;5010550;28;19928;-68